Time;durP1;ratioP1;P1;durP2;ratioP2;P2;SDS_P1;SDS_P2;PMS_P1;PMS_P2;Temp;Humidity;BMP_temperature;BMP_pressure;BME280_temperature;BME280_humidity;BME280_pressure;Samples;Min_cycle;Max_cycle;Signal;HPM_P1;HPM_P2
2023/09/03 09:47:32;;;;;;;6.97;6.50;;;23.40;29.80;;;;;;5584398;23;20699;-78
2023/09/03 09:49:58;;;;;;;6.40;6.00;;;23.40;29.70;;;;;;4967286;28;20419;-78
2023/09/03 09:52:34;;;;;;;6.50;6.10;;;23.50;29.60;;;;;;4982414;28;20199;-77
2023/09/03 09:55:00;;;;;;;6.07;5.47;;;23.60;29.30;;;;;;4971237;29;20178;-78
2023/09/03 09:57:25;;;;;;;6.17;5.73;;;23.70;28.70;;;;;;4968738;29;20407;-78
2023/09/03 09:59:52;;;;;;;5.80;5.50;;;23.70;28.10;;;;;;4964692;29;20414;-77
2023/09/03 10:02:19;;;;;;;6.00;5.70;;;23.80;27.70;;;;;;4965943;28;20266;-78
2023/09/03 10:04:47;;;;;;;5.77;5.47;;;23.80;27.00;;;;;;4962199;29;20423;-78
2023/09/03 10:07:13;;;;;;;6.70;6.30;;;23.90;27.00;;;;;;4960273;29;20473;-78
2023/09/03 10:09:39;;;;;;;5.77;5.47;;;24.00;27.30;;;;;;4960072;29;20427;-78
2023/09/03 10:12:06;;;;;;;5.70;5.40;;;23.90;27.00;;;;;;4959852;28;20781;-78
2023/09/03 10:14:32;;;;;;;6.10;5.60;;;23.90;26.50;;;;;;4959866;29;20411;-79
2023/09/03 10:17:02;;;;;;;6.60;4.83;;;23.90;25.90;;;;;;4942349;29;20506;-79
2023/09/03 10:19:36;;;;;;;5.07;4.87;;;24.00;25.20;;;;;;4942578;28;20437;-79
2023/09/03 10:22:02;;;;;;;5.37;5.07;;;24.00;25.20;;;;;;4963806;29;20414;-78
2023/09/03 10:24:29;;;;;;;6.03;5.57;;;24.10;25.20;;;;;;4963345;29;20418;-78
2023/09/03 10:27:02;;;;;;;5.10;4.90;;;24.10;24.50;;;;;;4962027;29;20457;-79
2023/09/03 10:29:31;;;;;;;5.10;4.80;;;24.10;24.50;;;;;;4961773;29;20416;-79
2023/09/03 10:31:58;;;;;;;4.97;4.77;;;24.10;24.70;;;;;;4961661;29;20426;-79
2023/09/03 10:34:24;;;;;;;4.17;4.07;;;24.10;25.10;;;;;;4961456;28;20438;-79
2023/09/03 10:37:04;;;;;;;4.90;4.70;;;24.20;24.50;;;;;;4961422;29;20845;-80
2023/09/03 10:39:30;;;;;;;4.30;4.10;;;24.20;24.50;;;;;;4962487;29;20661;-81
2023/09/03 10:42:14;;;;;;;5.30;5.10;;;24.20;23.50;;;;;;4961251;29;20462;-79
2023/09/03 10:44:44;;;;;;;4.37;4.17;;;24.30;23.30;;;;;;4960931;29;20743;-79
2023/09/03 10:47:14;;;;;;;3.80;3.70;;;24.40;23.50;;;;;;4960614;29;20477;-79
2023/09/03 10:49:57;;;;;;;3.87;3.70;;;24.50;22.70;;;;;;4974836;28;20422;-80
2023/09/03 10:52:27;;;;;;;3.60;3.40;;;24.50;22.10;;;;;;4963509;28;20457;-79
2023/09/03 10:55:19;;;;;;;3.90;3.70;;;24.50;21.00;;;;;;4962221;28;20504;-79
2023/09/03 10:57:46;;;;;;;3.97;3.77;;;24.60;21.70;;;;;;4980155;28;20473;-79
2023/09/03 11:00:15;;;;;;;3.90;3.80;;;24.60;21.70;;;;;;4978348;28;20433;-79
2023/09/03 11:02:41;;;;;;;4.07;3.97;;;24.60;20.50;;;;;;4978426;28;20430;-79
2023/09/03 11:05:09;;;;;;;4.50;4.30;;;24.70;20.60;;;;;;4979036;28;20410;-78
2023/09/03 11:07:35;;;;;;;4.50;4.30;;;24.70;22.00;;;;;;4978715;28;20298;-78
2023/09/03 11:10:24;;;;;;;4.50;4.30;;;24.60;22.00;;;;;;4978926;28;20493;-78
2023/09/03 11:12:54;;;;;;;4.57;4.37;;;24.60;22.00;;;;;;4962262;28;20574;-80
2023/09/03 11:15:20;;;;;;;4.10;4.00;;;24.60;21.90;;;;;;4962110;28;20770;-80
2023/09/03 11:17:57;;;;;;;4.23;4.07;;;24.60;21.30;;;;;;4980351;28;20451;-82
2023/09/03 11:20:32;;;;;;;4.60;4.40;;;24.50;21.00;;;;;;4979626;28;20413;-79
2023/09/03 11:22:59;;;;;;;4.70;4.43;;;24.50;21.30;;;;;;4980097;28;20456;-79
2023/09/03 11:25:36;;;;;;;3.90;3.80;;;24.50;20.90;;;;;;4980282;28;20413;-80
2023/09/03 11:28:02;;;;;;;4.73;4.40;;;24.50;20.50;;;;;;4963790;28;20465;-79
2023/09/03 11:30:28;;;;;;;4.93;4.63;;;24.60;21.40;;;;;;4984590;28;20470;-82
2023/09/03 11:32:54;;;;;;;4.33;4.13;;;24.50;21.70;;;;;;4983575;28;20430;-82
2023/09/03 11:35:21;;;;;;;4.37;4.17;;;24.50;22.20;;;;;;4964067;28;20461;-82
2023/09/03 11:37:47;;;;;;;4.00;3.90;;;24.50;20.80;;;;;;4980585;28;20482;-81
2023/09/03 11:40:14;;;;;;;4.67;4.47;;;24.60;21.00;;;;;;4979976;28;20421;-82
2023/09/03 11:42:44;;;;;;;4.40;4.13;;;24.50;21.60;;;;;;4979611;28;20485;-81
2023/09/03 11:45:11;;;;;;;5.00;4.70;;;24.60;21.30;;;;;;4962435;28;20434;-79
2023/09/03 11:47:40;;;;;;;6.90;6.40;;;24.60;21.00;;;;;;4978225;28;20951;-78
2023/09/03 11:50:13;;;;;;;5.10;4.80;;;24.70;20.90;;;;;;4961850;28;20457;-78
2023/09/03 11:52:41;;;;;;;4.90;4.60;;;24.80;21.60;;;;;;4961310;28;20442;-79
2023/09/03 11:55:06;;;;;;;5.00;4.80;;;24.70;21.70;;;;;;4980283;28;20411;-78
2023/09/03 11:57:36;;;;;;;4.33;4.20;;;24.60;21.90;;;;;;4979453;28;20426;-78
2023/09/03 12:00:03;;;;;;;5.00;4.80;;;24.60;22.20;;;;;;4960423;28;20233;-78
2023/09/03 12:02:29;;;;;;;4.53;4.33;;;24.50;22.30;;;;;;4960041;28;20534;-78
2023/09/03 12:04:55;;;;;;;5.37;5.07;;;24.50;22.50;;;;;;4977447;28;20896;-78
2023/09/03 12:07:23;;;;;;;5.10;4.90;;;24.50;22.10;;;;;;4977477;28;20513;-78
2023/09/03 12:09:49;;;;;;;4.93;4.73;;;24.50;22.10;;;;;;4977402;28;20810;-78
2023/09/03 12:12:16;;;;;;;5.00;4.90;;;24.40;21.80;;;;;;4976866;28;20460;-78
2023/09/03 12:14:41;;;;;;;4.97;4.77;;;24.40;21.80;;;;;;4976929;28;20947;-77
2023/09/03 12:17:07;;;;;;;5.33;5.13;;;24.30;22.10;;;;;;4959518;28;20422;-78
2023/09/03 12:19:39;;;;;;;5.60;5.23;;;24.30;22.30;;;;;;4976716;28;20641;-78
2023/09/03 12:22:04;;;;;;;4.90;4.70;;;24.20;22.60;;;;;;4976641;28;20167;-78
2023/09/03 12:24:30;;;;;;;5.83;5.63;;;24.20;23.10;;;;;;4976029;28;20418;-77
2023/09/03 12:27:03;;;;;;;5.10;4.90;;;24.30;23.20;;;;;;4958377;28;20217;-78
2023/09/03 12:29:34;;;;;;;5.20;5.00;;;24.30;23.50;;;;;;4975563;28;20595;-78
2023/09/03 12:31:59;;;;;;;5.37;5.00;;;24.30;22.80;;;;;;4967406;28;20795;-78
2023/09/03 12:34:33;;;;;;;5.20;5.00;;;24.30;22.90;;;;;;4974468;28;20525;-79
2023/09/03 12:36:59;;;;;;;5.90;5.60;;;24.30;23.00;;;;;;4958046;28;20245;-79
2023/09/03 12:39:42;;;;;;;4.93;4.73;;;24.30;23.20;;;;;;4956735;28;20433;-80
2023/09/03 12:42:09;;;;;;;5.77;5.47;;;24.20;23.20;;;;;;4949642;28;20428;-78
2023/09/03 12:44:35;;;;;;;5.90;5.60;;;24.20;23.80;;;;;;4965000;28;20863;-78
2023/09/03 12:47:01;;;;;;;5.43;5.23;;;24.20;23.80;;;;;;4970852;28;20505;-79
2023/09/03 12:49:27;;;;;;;5.50;5.30;;;24.30;23.20;;;;;;4952992;28;20431;-79
2023/09/03 12:51:56;;;;;;;19.03;17.10;;;24.20;23.50;;;;;;4980386;28;20426;-79
2023/09/03 12:54:23;;;;;;;6.43;5.97;;;24.30;22.90;;;;;;4958693;28;20441;-79
2023/09/03 12:56:49;;;;;;;4.70;4.50;;;24.40;22.90;;;;;;4967921;28;20422;-78
2023/09/03 12:59:15;;;;;;;5.10;4.90;;;24.30;22.60;;;;;;4975084;28;20436;-78
2023/09/03 13:01:41;;;;;;;4.97;4.77;;;24.30;22.90;;;;;;4958461;28;20424;-78
2023/09/03 13:04:10;;;;;;;4.63;4.43;;;24.30;23.20;;;;;;4958212;28;20924;-79
2023/09/03 13:06:36;;;;;;;4.53;4.23;;;24.20;22.80;;;;;;4977052;28;20465;-78
2023/09/03 13:09:02;;;;;;;5.50;5.13;;;24.20;22.60;;;;;;4977084;28;20817;-78
2023/09/03 13:11:28;;;;;;;4.83;4.63;;;24.20;22.40;;;;;;4976710;28;20470;-79
2023/09/03 13:13:54;;;;;;;5.17;4.87;;;24.10;22.60;;;;;;4977326;28;20868;-79
2023/09/03 13:16:20;;;;;;;5.10;4.90;;;24.10;22.70;;;;;;4976176;28;20549;-78
2023/09/03 13:18:48;;;;;;;5.07;4.87;;;24.10;22.70;;;;;;4976071;28;20175;-80
2023/09/03 13:21:15;;;;;;;4.33;4.17;;;24.10;23.50;;;;;;4977810;28;20928;-80
2023/09/03 13:23:41;;;;;;;4.80;4.40;;;24.20;21.10;;;;;;4974607;28;20544;-79
2023/09/03 13:26:07;;;;;;;5.03;4.73;;;24.20;21.20;;;;;;4977560;28;20442;-79
2023/09/03 13:28:33;;;;;;;4.57;4.37;;;24.20;21.00;;;;;;4976302;28;20185;-77
2023/09/03 13:31:01;;;;;;;4.53;4.23;;;24.20;21.10;;;;;;4977256;28;20221;-78
2023/09/03 13:33:27;;;;;;;6.27;5.80;;;24.20;22.00;;;;;;4969659;28;20187;-78
2023/09/03 13:35:53;;;;;;;5.20;4.87;;;24.20;22.40;;;;;;4960565;28;20411;-79
2023/09/03 13:38:19;;;;;;;4.73;4.53;;;24.20;21.80;;;;;;4978511;28;20179;-79
2023/09/03 13:40:45;;;;;;;5.10;4.90;;;24.30;22.70;;;;;;4982615;28;20453;-79
2023/09/03 13:43:11;;;;;;;5.47;5.27;;;24.30;23.30;;;;;;4973358;28;20449;-78
2023/09/03 13:45:36;;;;;;;4.83;4.63;;;24.30;23.50;;;;;;4990149;28;20190;-78
2023/09/03 13:48:02;;;;;;;4.90;4.70;;;24.30;23.50;;;;;;4985956;28;20471;-77
2023/09/03 13:50:28;;;;;;;5.20;5.00;;;24.30;23.40;;;;;;4984658;28;20174;-78
2023/09/03 13:52:57;;;;;;;5.67;5.47;;;24.20;23.20;;;;;;4958634;28;20442;-78
2023/09/03 13:55:26;;;;;;;6.10;5.90;;;24.20;23.40;;;;;;4977101;28;20579;-79
2023/09/03 13:57:53;;;;;;;5.50;5.30;;;24.20;23.10;;;;;;4978990;28;20510;-78
2023/09/03 14:00:22;;;;;;;5.30;5.00;;;24.10;23.00;;;;;;4980007;28;20472;-79
2023/09/03 14:02:48;;;;;;;6.13;4.77;;;24.10;23.00;;;;;;4979705;28;20449;-77
2023/09/03 14:05:14;;;;;;;5.67;5.10;;;24.10;22.90;;;;;;4978488;28;20418;-77
2023/09/03 14:07:40;;;;;;;4.90;4.70;;;24.10;21.80;;;;;;4961540;28;20461;-77
2023/09/03 14:10:06;;;;;;;5.10;4.90;;;24.10;21.80;;;;;;4960099;28;20422;-78
2023/09/03 14:12:31;;;;;;;5.20;4.90;;;24.10;22.00;;;;;;4960413;28;20346;-77
2023/09/03 14:14:57;;;;;;;5.10;4.80;;;24.10;22.00;;;;;;4978524;28;20527;-79
2023/09/03 14:17:23;;;;;;;6.23;5.83;;;24.10;22.60;;;;;;4980381;28;20190;-79
2023/09/03 14:19:49;;;;;;;5.27;5.07;;;24.10;22.10;;;;;;4980792;28;20196;-79
2023/09/03 14:22:16;;;;;;;4.77;4.57;;;24.10;22.40;;;;;;4980092;28;20198;-79
2023/09/03 14:24:45;;;;;;;4.43;4.23;;;24.10;22.30;;;;;;4979179;28;20476;-79
2023/09/03 14:27:11;;;;;;;4.97;4.77;;;24.10;22.30;;;;;;4980214;28;20471;-79
2023/09/03 14:29:38;;;;;;;4.20;4.10;;;24.10;22.00;;;;;;4979911;28;20410;-77
2023/09/03 14:32:04;;;;;;;6.20;4.63;;;24.20;21.20;;;;;;4977727;28;20473;-78
2023/09/03 14:34:30;;;;;;;4.57;4.37;;;24.10;21.10;;;;;;4978435;28;20410;-78
2023/09/03 14:36:55;;;;;;;4.40;4.20;;;24.10;21.20;;;;;;4961669;28;20433;-79
2023/09/03 14:39:21;;;;;;;3.80;3.60;;;24.10;20.20;;;;;;4978701;28;20234;-79
2023/09/03 14:41:47;;;;;;;4.10;3.90;;;24.10;20.20;;;;;;4961783;28;20240;-79
2023/09/03 14:44:14;;;;;;;4.40;4.17;;;24.10;20.50;;;;;;4978897;28;20281;-79
2023/09/03 14:46:40;;;;;;;4.43;4.23;;;24.20;20.70;;;;;;4978375;28;20297;-79
2023/09/03 14:49:11;;;;;;;4.53;4.33;;;24.20;20.50;;;;;;4961427;28;20438;-79
2023/09/03 14:51:39;;;;;;;4.63;4.43;;;24.20;20.50;;;;;;4978813;28;20414;-78
2023/09/03 14:54:05;;;;;;;3.93;3.77;;;24.20;20.80;;;;;;4962363;28;20433;-79
2023/09/03 14:56:31;;;;;;;4.23;3.93;;;24.20;21.00;;;;;;4978493;28;20497;-79
2023/09/03 14:59:00;;;;;;;4.30;4.10;;;24.20;20.90;;;;;;4977702;28;20175;-78
2023/09/03 15:01:26;;;;;;;4.57;4.37;;;24.10;20.90;;;;;;4978019;28;20175;-77
2023/09/03 15:03:51;;;;;;;4.33;4.03;;;24.10;21.00;;;;;;4977993;28;20502;-78
2023/09/03 15:06:18;;;;;;;4.40;4.03;;;24.10;21.00;;;;;;4976936;28;20234;-78
2023/09/03 15:08:44;;;;;;;3.73;3.63;;;24.10;20.70;;;;;;4960002;28;20201;-78
2023/09/03 15:11:12;;;;;;;3.80;3.60;;;24.20;20.40;;;;;;4977733;28;20777;-78
2023/09/03 15:13:40;;;;;;;3.97;3.77;;;24.20;20.30;;;;;;4977602;28;20437;-79
2023/09/03 15:16:08;;;;;;;3.80;3.60;;;24.20;20.00;;;;;;4977401;28;20489;-79
2023/09/03 15:18:34;;;;;;;3.93;3.73;;;24.20;20.00;;;;;;4977010;28;20489;-77
2023/09/03 15:21:00;;;;;;;4.27;4.07;;;24.20;20.30;;;;;;4977414;28;20497;-77
